createdAt,value
2023-03-23T15:58:00.797Z,2.15
2023-03-23T16:00:42.571Z,2.38
2023-03-23T16:03:39.499Z,2.10
2023-03-23T16:06:24.968Z,2.25
2023-03-23T16:09:01.477Z,2.40
2023-03-23T16:11:40.763Z,2.03
2023-03-23T16:14:20.626Z,2.58
2023-03-23T16:17:00.711Z,2.05
2023-03-23T16:19:40.523Z,2.28
2023-03-23T16:22:20.591Z,2.13
2023-03-23T16:25:02.108Z,2.40
2023-03-23T16:27:41.802Z,2.60
2023-03-23T16:30:27.426Z,2.40
2023-03-23T16:33:01.637Z,2.67
2023-03-23T16:35:41.490Z,2.95
2023-03-23T16:38:20.622Z,2.70
2023-03-23T16:41:00.578Z,2.42
2023-03-23T16:43:42.984Z,2.28
2023-03-23T16:46:20.533Z,2.83
2023-03-23T16:49:02.213Z,2.50
2023-03-23T16:51:42.825Z,2.55
2023-03-23T16:54:20.475Z,2.20
2023-03-23T16:57:03.489Z,2.53
2023-03-23T16:59:40.608Z,2.97
2023-03-23T17:02:20.737Z,2.78
2023-03-23T17:05:01.838Z,2.22
2023-03-23T17:07:42.172Z,2.70
2023-03-23T17:10:20.655Z,2.45
2023-03-23T17:13:00.686Z,2.65
2023-03-23T17:15:44.504Z,2.70
2023-03-23T17:18:21.150Z,2.70
2023-03-23T17:21:00.578Z,2.45
2023-03-23T17:23:40.590Z,2.65
2023-03-23T17:26:20.959Z,2.65
2023-03-23T17:29:00.627Z,2.90
2023-03-23T17:31:41.816Z,2.85
2023-03-23T17:34:20.986Z,3.00
2023-03-23T17:37:00.530Z,2.60
2023-03-23T17:39:42.700Z,2.72
2023-03-23T17:42:20.836Z,2.85
2023-03-23T17:45:00.544Z,2.90
2023-03-23T17:47:40.562Z,2.20
2023-03-23T17:50:20.684Z,2.38
2023-03-23T17:53:01.634Z,2.97
2023-03-23T17:55:43.634Z,2.40
2023-03-23T17:58:20.948Z,2.40
2023-03-23T18:01:00.637Z,2.80
2023-03-23T18:03:41.146Z,2.67
2023-03-23T18:06:21.159Z,2.92
2023-03-23T18:09:00.524Z,2.22
2023-03-23T18:11:40.908Z,2.35
2023-03-23T18:14:21.625Z,1.98
2023-03-23T18:17:01.852Z,2.33
2023-03-23T18:19:40.592Z,2.45
2023-03-23T18:22:20.736Z,2.08
2023-03-23T18:25:02.692Z,2.40
2023-03-23T18:27:41.641Z,2.28
2023-03-23T18:30:20.959Z,1.98
2023-03-23T18:33:00.878Z,2.10
2023-03-23T18:35:40.939Z,2.25
2023-03-23T18:38:20.706Z,1.95
2023-03-23T18:41:00.884Z,1.92
2023-03-23T18:43:41.060Z,2.00
2023-03-23T18:46:20.560Z,2.10
2023-03-23T18:49:00.500Z,1.88
2023-03-23T18:51:41.745Z,1.95
2023-03-23T18:54:20.613Z,2.40
2023-03-23T18:57:02.170Z,2.33
2023-03-23T18:59:40.589Z,2.28
2023-03-23T19:02:25.028Z,2.42
2023-03-23T19:05:01.265Z,1.73
2023-03-23T19:07:40.544Z,2.13
2023-03-23T19:10:23.221Z,2.15
2023-03-23T19:13:01.058Z,2.33
2023-03-23T19:15:41.475Z,1.92
2023-03-23T19:18:20.960Z,2.05
2023-03-23T19:23:41.456Z,1.50
2023-03-23T19:26:34.690Z,1.92
2023-03-23T19:32:09.058Z,1.83
2023-03-23T19:34:52.520Z,1.73
2023-03-23T19:37:34.664Z,1.60
2023-03-23T19:40:31.352Z,2.05
2023-03-23T19:43:10.588Z,1.73
2023-03-23T19:45:50.813Z,2.03
2023-03-23T19:48:31.178Z,1.50
2023-03-23T19:51:12.588Z,1.60
2023-03-23T19:53:51.009Z,1.85
2023-03-23T19:56:30.947Z,1.50
2023-03-23T19:59:16.561Z,1.42
2023-03-23T20:01:50.665Z,1.58
2023-03-23T20:04:30.737Z,2.00
2023-03-23T20:07:11.355Z,1.80
2023-03-23T20:09:50.754Z,1.02
2023-03-23T20:12:30.527Z,1.67
2023-03-23T20:15:10.792Z,1.55
2023-03-23T20:17:50.680Z,1.33
2023-03-23T20:20:30.728Z,1.60
2023-03-23T20:23:10.849Z,1.67
2023-03-23T20:25:51.148Z,1.30
2023-03-23T20:28:30.643Z,1.67
2023-03-23T20:31:23.983Z,1.75
2023-03-23T20:34:04.616Z,1.50
2023-03-23T20:36:45.876Z,1.90
2023-03-23T20:39:22.529Z,2.22
2023-03-23T20:42:06.626Z,1.92
2023-03-23T20:44:45.302Z,2.20
2023-03-23T20:47:20.745Z,4.60
2023-03-23T20:50:01.019Z,7.13
2023-03-23T20:52:40.727Z,12.55
2023-03-23T20:55:20.590Z,15.85
2023-03-23T20:58:01.071Z,18.73
2023-03-23T21:00:41.858Z,24.55
2023-03-23T21:03:20.589Z,27.00
2023-03-23T21:06:03.349Z,28.95
2023-03-23T21:08:41.002Z,33.67
2023-03-23T21:11:23.134Z,36.40
2023-03-23T21:14:01.314Z,38.00
2023-03-23T21:16:42.067Z,40.78
2023-03-23T21:19:20.673Z,42.45
2023-03-23T21:22:01.937Z,43.30
2023-03-23T21:24:41.828Z,47.17
2023-03-23T21:27:20.695Z,45.90
2023-03-23T21:30:01.373Z,47.03
2023-03-23T21:32:41.273Z,45.90
2023-03-23T21:35:20.968Z,47.63
2023-03-23T21:38:00.614Z,49.47
2023-03-23T21:40:42.296Z,50.08
2023-03-23T21:43:28.386Z,50.08
2023-03-23T21:46:14.114Z,51.00
2023-03-23T21:48:51.750Z,52.13
2023-03-23T21:51:30.961Z,56.00
2023-03-23T21:54:11.926Z,52.60
2023-03-23T21:56:51.263Z,56.15
2023-03-23T21:59:30.803Z,56.13
2023-03-23T22:02:14.100Z,58.17
2023-03-23T22:04:52.611Z,57.55
2023-03-23T22:07:33.241Z,56.60
2023-03-23T22:10:11.000Z,58.55
2023-03-23T22:12:53.751Z,52.63
2023-03-23T22:15:30.562Z,56.75
2023-03-23T22:18:10.586Z,52.25
2023-03-23T22:20:50.511Z,54.03
2023-03-23T22:23:30.619Z,53.35
2023-03-23T22:26:14.246Z,51.53
2023-03-23T22:28:51.119Z,53.30
2023-03-23T22:31:34.476Z,50.47
2023-03-23T22:34:13.141Z,50.35
2023-03-23T22:36:51.017Z,52.42
2023-03-23T22:39:31.453Z,50.83
2023-03-23T22:42:12.373Z,50.80
2023-03-23T22:44:51.564Z,51.30
2023-03-23T22:47:32.092Z,47.03
2023-03-23T22:50:11.359Z,46.72
2023-03-23T22:52:52.561Z,48.20
2023-03-23T22:55:31.701Z,48.28
2023-03-23T22:58:11.616Z,47.58
2023-03-23T23:00:55.950Z,46.53
2023-03-23T23:03:31.405Z,45.90
2023-03-23T23:06:12.328Z,45.00
2023-03-23T23:08:51.863Z,44.30
2023-03-23T23:11:31.471Z,43.80
2023-03-23T23:14:11.103Z,42.17
2023-03-23T23:16:52.729Z,41.53
2023-03-23T23:19:30.689Z,40.03
2023-03-23T23:22:19.084Z,40.38
2023-03-23T23:25:01.329Z,39.67
2023-03-23T23:27:40.541Z,37.53
2023-03-23T23:30:20.696Z,38.25
2023-03-23T23:33:02.268Z,37.33
2023-03-23T23:35:41.853Z,37.90
2023-03-23T23:38:20.861Z,36.97
2023-03-23T23:41:00.572Z,35.95
2023-03-23T23:43:41.959Z,34.90
2023-03-23T23:46:23.344Z,34.33
2023-03-23T23:49:03.812Z,34.38
2023-03-23T23:51:41.274Z,31.77
2023-03-23T23:54:23.050Z,32.00
2023-03-23T23:57:02.638Z,32.63
2023-03-23T23:59:41.141Z,31.25
